createdAt,value
2022-08-20T00:02:10.836Z,89.00
2022-08-20T00:04:39.482Z,89.00
2022-08-20T00:07:07.810Z,89.20
2022-08-20T00:09:36.642Z,89.30
2022-08-20T00:12:06.641Z,89.60
2022-08-20T00:14:35.398Z,90.00
2022-08-20T00:17:04.794Z,90.30
2022-08-20T00:19:32.109Z,90.50
2022-08-20T00:21:59.428Z,90.60
2022-08-20T00:24:26.952Z,90.70
2022-08-20T00:26:54.275Z,90.90
2022-08-20T00:29:22.412Z,90.90
2022-08-20T00:31:51.119Z,91.10
2022-08-20T00:34:19.054Z,91.10
2022-08-20T00:36:47.046Z,91.10
2022-08-20T00:39:14.932Z,91.10
2022-08-20T00:41:42.262Z,91.10
2022-08-20T00:44:22.627Z,91.10
2022-08-20T00:46:51.186Z,91.20
2022-08-20T00:49:28.107Z,91.30
2022-08-20T00:52:15.856Z,91.70
2022-08-20T00:55:02.359Z,91.50
2022-08-20T00:57:54.782Z,91.50
2022-08-20T01:00:38.031Z,91.40
2022-08-20T01:03:09.994Z,91.50
2022-08-20T01:05:45.314Z,91.60
2022-08-20T01:08:14.834Z,91.90
2022-08-20T01:10:48.708Z,92.10
2022-08-20T01:13:24.096Z,92.20
2022-08-20T01:15:56.261Z,92.40
2022-08-20T01:18:27.536Z,92.50
2022-08-20T01:21:05.133Z,92.40
2022-08-20T01:24:02.228Z,92.50
2022-08-20T01:26:37.648Z,92.50
2022-08-20T01:29:27.451Z,92.40
2022-08-20T01:32:01.204Z,92.60
2022-08-20T01:34:29.480Z,92.50
2022-08-20T01:36:58.640Z,92.40
2022-08-20T01:39:36.496Z,92.20
2022-08-20T01:42:52.834Z,91.90
2022-08-20T01:45:43.669Z,91.70
2022-08-20T01:48:14.668Z,91.60
2022-08-20T01:50:53.807Z,91.70
2022-08-20T01:53:33.806Z,91.70
2022-08-20T01:56:09.522Z,91.70
2022-08-20T01:58:42.599Z,91.60
2022-08-20T02:01:26.489Z,91.70
2022-08-20T02:03:55.285Z,91.70
2022-08-20T02:06:27.051Z,91.80
2022-08-20T02:08:59.211Z,91.80
2022-08-20T02:11:30.015Z,91.90
2022-08-20T02:13:58.203Z,91.80
2022-08-20T02:16:35.432Z,91.60
2022-08-20T02:19:20.023Z,91.60
2022-08-20T02:21:55.464Z,91.50
2022-08-20T02:24:23.270Z,91.30
2022-08-20T02:26:52.786Z,91.40
2022-08-20T02:29:20.183Z,91.40
2022-08-20T02:32:25.155Z,91.30
2022-08-20T02:34:35.888Z,91.20
2022-08-20T02:37:06.362Z,91.10
2022-08-20T02:39:34.641Z,91.20
2022-08-20T02:42:03.948Z,91.20
2022-08-20T02:44:32.287Z,91.20
2022-08-20T02:47:01.004Z,91.20
2022-08-20T02:49:28.376Z,91.20
2022-08-20T02:51:55.680Z,91.20
2022-08-20T02:54:24.860Z,91.30
2022-08-20T02:56:52.291Z,91.40
2022-08-20T02:59:20.087Z,91.30
2022-08-20T03:01:55.843Z,91.30
2022-08-20T03:04:30.448Z,91.30
2022-08-20T03:06:59.400Z,91.30
2022-08-20T03:09:27.101Z,91.30
2022-08-20T03:11:54.457Z,91.30
2022-08-20T03:14:21.685Z,91.30
2022-08-20T03:16:49.473Z,91.40
2022-08-20T03:19:16.894Z,91.60
2022-08-20T03:21:44.260Z,91.60
2022-08-20T03:24:11.569Z,91.50
2022-08-20T03:26:38.927Z,91.50
2022-08-20T03:29:06.236Z,91.50
2022-08-20T03:31:34.017Z,91.50
2022-08-20T03:34:01.391Z,91.70
2022-08-20T03:36:29.482Z,91.70
2022-08-20T03:39:01.279Z,91.80
2022-08-20T03:41:29.164Z,91.80
2022-08-20T03:43:56.548Z,91.80
2022-08-20T03:46:25.050Z,91.80
2022-08-20T03:48:59.586Z,91.90
2022-08-20T03:51:30.463Z,91.80
2022-08-20T03:53:58.905Z,91.80
2022-08-20T03:56:27.513Z,91.80
2022-08-20T03:58:55.997Z,91.90
2022-08-20T04:01:44.219Z,91.80
2022-08-20T04:04:12.184Z,91.90
2022-08-20T04:06:41.407Z,91.80
2022-08-20T04:09:12.270Z,91.90
2022-08-20T04:11:42.225Z,92.00
2022-08-20T04:14:12.028Z,92.00
2022-08-20T04:16:45.686Z,91.90
2022-08-20T04:19:16.566Z,91.90
2022-08-20T04:21:43.973Z,91.90
2022-08-20T04:24:26.746Z,91.80
2022-08-20T04:26:58.923Z,91.70
2022-08-20T04:29:32.003Z,91.70
2022-08-20T04:32:03.388Z,91.70
2022-08-20T04:34:34.438Z,91.70
2022-08-20T04:37:03.790Z,91.70
2022-08-20T04:39:31.392Z,91.50
2022-08-20T04:41:59.350Z,91.40
2022-08-20T04:44:27.570Z,91.40
2022-08-20T04:46:55.256Z,91.50
2022-08-20T04:49:25.359Z,91.50
2022-08-20T04:51:54.711Z,91.40
2022-08-20T04:54:22.284Z,91.40
2022-08-20T04:56:49.566Z,91.30
2022-08-20T04:59:16.922Z,91.30
2022-08-20T05:01:44.222Z,91.10
2022-08-20T05:04:12.060Z,91.20
2022-08-20T05:06:41.562Z,91.40
2022-08-20T05:09:08.846Z,91.30
2022-08-20T05:11:37.043Z,91.20
2022-08-20T05:14:09.487Z,91.10
2022-08-20T05:16:41.119Z,91.10
2022-08-20T05:19:12.219Z,91.00
2022-08-20T05:21:40.112Z,91.00
2022-08-20T05:24:12.134Z,91.00
2022-08-20T05:26:42.357Z,90.90
2022-08-20T05:29:09.657Z,90.90
2022-08-20T05:31:38.528Z,90.70
2022-08-20T05:34:13.495Z,90.60
2022-08-20T05:36:51.799Z,90.50
2022-08-20T05:39:23.357Z,90.10
2022-08-20T05:41:52.351Z,89.90
2022-08-20T05:44:20.068Z,89.30
2022-08-20T05:46:48.471Z,88.60
2022-08-20T05:49:22.459Z,87.60
2022-08-20T05:51:53.789Z,87.00
2022-08-20T05:54:22.416Z,86.40
2022-08-20T05:56:50.814Z,85.80
2022-08-20T05:59:22.210Z,84.90
2022-08-20T06:01:52.541Z,84.30
2022-08-20T06:04:28.080Z,83.60
2022-08-20T06:07:05.850Z,82.70
2022-08-20T06:09:37.303Z,82.40
2022-08-20T06:12:09.018Z,82.60
2022-08-20T06:14:36.792Z,82.50
2022-08-20T06:17:13.301Z,82.40
2022-08-20T06:19:44.123Z,82.00
2022-08-20T06:22:18.836Z,81.80
2022-08-20T06:24:53.345Z,81.80
2022-08-20T06:27:21.815Z,80.90
2022-08-20T06:29:50.157Z,80.60
2022-08-20T06:32:27.838Z,80.40
2022-08-20T06:35:09.311Z,80.10
2022-08-20T06:37:40.213Z,80.00
2022-08-20T06:40:22.383Z,80.10
2022-08-20T06:42:51.242Z,79.80
2022-08-20T06:45:24.667Z,79.70
2022-08-20T06:47:56.179Z,79.60
2022-08-20T06:50:43.128Z,79.30
2022-08-20T06:53:20.941Z,78.90
2022-08-20T06:55:56.958Z,78.60
2022-08-20T06:58:36.563Z,78.40
2022-08-20T07:01:09.364Z,78.20
2022-08-20T07:03:55.307Z,78.00
2022-08-20T07:06:27.025Z,77.80
2022-08-20T07:08:55.874Z,77.40
2022-08-20T07:11:28.194Z,76.40
2022-08-20T07:13:59.491Z,76.60
2022-08-20T07:16:27.625Z,76.70
2022-08-20T07:18:55.177Z,76.90
2022-08-20T07:21:22.997Z,77.20
2022-08-20T07:23:50.633Z,77.50
2022-08-20T07:26:20.086Z,77.80
2022-08-20T07:28:47.676Z,77.90
2022-08-20T07:31:34.929Z,77.50
2022-08-20T07:34:03.495Z,77.20
2022-08-20T07:36:31.210Z,76.40
2022-08-20T07:38:58.862Z,76.10
2022-08-20T07:41:26.068Z,76.00
2022-08-20T07:43:53.318Z,75.30
2022-08-20T07:46:21.748Z,75.00
2022-08-20T07:48:51.641Z,74.80
2022-08-20T07:51:22.490Z,74.40
2022-08-20T07:53:52.066Z,74.00
2022-08-20T07:56:24.277Z,74.10
2022-08-20T07:58:55.609Z,73.80
2022-08-20T08:01:28.726Z,73.20
2022-08-20T08:03:57.699Z,72.90
2022-08-20T08:06:29.347Z,72.60
2022-08-20T08:09:24.326Z,72.00
2022-08-20T08:11:51.896Z,71.40
2022-08-20T08:14:27.441Z,71.70
2022-08-20T08:17:02.990Z,71.00
2022-08-20T08:19:38.330Z,70.30
2022-08-20T08:22:14.367Z,69.80
2022-08-20T08:24:56.635Z,68.90
2022-08-20T08:27:25.969Z,69.00
2022-08-20T08:29:53.220Z,69.00
2022-08-20T08:32:20.458Z,68.50
2022-08-20T08:34:48.360Z,68.20
2022-08-20T08:37:15.588Z,67.70
2022-08-20T08:39:42.930Z,67.80
2022-08-20T08:42:58.176Z,67.10
2022-08-20T08:45:45.768Z,65.80
2022-08-20T08:48:18.701Z,66.10
2022-08-20T08:50:54.773Z,65.40
2022-08-20T08:53:30.895Z,64.90
2022-08-20T08:55:59.631Z,64.00
2022-08-20T08:58:30.568Z,63.60
2022-08-20T09:01:02.120Z,63.20
2022-08-20T09:03:38.138Z,62.50
2022-08-20T09:06:06.371Z,62.20
2022-08-20T09:08:53.086Z,61.90
2022-08-20T09:11:23.436Z,60.60
2022-08-20T09:13:54.377Z,61.50
2022-08-20T09:16:23.143Z,61.40
2022-08-20T09:18:50.872Z,58.70
2022-08-20T09:21:19.886Z,60.40
2022-08-20T09:23:48.009Z,58.60
2022-08-20T09:26:15.247Z,58.70
2022-08-20T09:28:52.101Z,58.60
2022-08-20T09:31:24.276Z,59.60
2022-08-20T09:33:52.458Z,58.90
2022-08-20T09:36:28.797Z,58.90
2022-08-20T09:39:02.644Z,58.80
2022-08-20T09:41:33.859Z,58.50
2022-08-20T09:44:02.501Z,59.00
2022-08-20T09:46:30.750Z,59.60
2022-08-20T09:48:57.977Z,59.50
2022-08-20T09:51:25.170Z,59.50
2022-08-20T09:53:52.990Z,59.30
2022-08-20T09:56:20.227Z,59.30
2022-08-20T09:58:53.053Z,58.40
2022-08-20T10:01:22.575Z,58.80
2022-08-20T10:03:50.073Z,59.10
2022-08-20T10:06:20.183Z,58.50
2022-08-20T10:08:48.631Z,58.50
2022-08-20T10:11:16.389Z,59.00
2022-08-20T10:13:45.815Z,58.90
2022-08-20T10:16:13.720Z,58.50
2022-08-20T10:18:40.958Z,58.80
2022-08-20T10:21:11.063Z,58.90
2022-08-20T10:23:38.348Z,58.90
2022-08-20T10:26:07.731Z,58.80
2022-08-20T10:28:35.575Z,58.80
2022-08-20T10:31:04.740Z,58.00
2022-08-20T10:33:31.880Z,57.90
2022-08-20T10:36:13.567Z,58.10
2022-08-20T10:38:42.063Z,57.40
2022-08-20T10:41:10.002Z,57.50
2022-08-20T10:43:39.717Z,57.00
2022-08-20T10:46:07.130Z,57.20
2022-08-20T10:48:34.460Z,56.10
2022-08-20T10:51:01.701Z,55.90
2022-08-20T10:53:28.991Z,56.40
2022-08-20T10:55:57.866Z,56.10
2022-08-20T10:58:26.588Z,56.20
2022-08-20T11:01:05.050Z,56.50
2022-08-20T11:03:32.293Z,55.80
2022-08-20T11:05:59.592Z,55.40
2022-08-20T11:08:33.656Z,56.10
2022-08-20T11:11:05.590Z,55.80
2022-08-20T11:13:34.115Z,55.70
2022-08-20T11:16:21.181Z,56.10
2022-08-20T11:19:08.001Z,55.30
2022-08-20T11:21:35.607Z,55.60
2022-08-20T11:24:04.501Z,55.60
2022-08-20T11:26:33.239Z,55.80
2022-08-20T11:29:00.640Z,55.50
2022-08-20T11:31:27.946Z,55.70
2022-08-20T11:33:55.114Z,55.80
2022-08-20T11:36:26.476Z,56.00
2022-08-20T11:38:55.919Z,56.30
2022-08-20T11:41:23.457Z,56.70
2022-08-20T11:44:17.489Z,56.80
2022-08-20T11:46:39.310Z,56.80
2022-08-20T11:49:06.690Z,57.00
2022-08-20T11:51:48.909Z,57.20
2022-08-20T11:54:17.829Z,57.20
2022-08-20T11:56:51.143Z,57.30
2022-08-20T11:59:25.894Z,57.10
2022-08-20T12:02:03.327Z,57.40
2022-08-20T12:04:33.583Z,57.30
2022-08-20T12:07:19.832Z,57.10
2022-08-20T12:09:50.681Z,57.10
2022-08-20T12:12:25.319Z,57.20
2022-08-20T12:14:56.738Z,56.90
2022-08-20T12:17:32.971Z,56.90
2022-08-20T12:20:04.301Z,57.00
2022-08-20T12:22:31.758Z,56.80
2022-08-20T12:24:59.121Z,56.50
2022-08-20T12:27:32.141Z,56.50
2022-08-20T12:30:04.777Z,55.70
2022-08-20T12:32:32.881Z,55.90
2022-08-20T12:35:04.759Z,55.10
2022-08-20T12:37:34.569Z,55.20
2022-08-20T12:40:05.400Z,54.90
2022-08-20T12:42:32.723Z,55.30
2022-08-20T12:45:00.588Z,55.30
2022-08-20T12:47:32.030Z,55.00
2022-08-20T12:50:15.146Z,55.00
2022-08-20T12:52:44.379Z,55.00
2022-08-20T12:55:14.160Z,54.80
2022-08-20T12:57:47.149Z,54.70
2022-08-20T13:00:26.638Z,54.70
2022-08-20T13:02:57.040Z,54.70
2022-08-20T13:05:25.082Z,54.40
2022-08-20T13:07:53.689Z,54.40
2022-08-20T13:10:35.210Z,54.20
2022-08-20T13:13:03.092Z,54.30
2022-08-20T13:15:31.694Z,54.50
2022-08-20T13:18:01.851Z,54.50
2022-08-20T13:20:34.284Z,54.90
2022-08-20T13:23:06.249Z,54.80
2022-08-20T13:25:34.371Z,54.70
2022-08-20T13:28:04.506Z,54.10
2022-08-20T13:30:35.490Z,54.00
2022-08-20T13:33:03.478Z,54.40
2022-08-20T13:35:31.499Z,54.30
2022-08-20T13:37:58.654Z,54.30
2022-08-20T13:40:26.350Z,54.40
2022-08-20T13:42:54.823Z,54.60
2022-08-20T13:45:22.310Z,54.20
2022-08-20T13:47:54.486Z,54.40
2022-08-20T13:50:23.984Z,54.70
2022-08-20T13:52:52.005Z,54.70
2022-08-20T13:55:22.289Z,54.60
2022-08-20T13:57:50.927Z,54.70
2022-08-20T14:00:31.887Z,54.80
2022-08-20T14:03:01.331Z,55.00
2022-08-20T14:05:30.284Z,55.20
2022-08-20T14:08:06.122Z,55.20
2022-08-20T14:10:34.931Z,55.50
2022-08-20T14:13:05.708Z,55.70
2022-08-20T14:15:34.766Z,55.70
2022-08-20T14:18:02.050Z,55.70
2022-08-20T14:20:32.744Z,55.80
2022-08-20T14:23:01.255Z,55.90
2022-08-20T14:25:31.553Z,56.00
2022-08-20T14:28:10.406Z,56.10
2022-08-20T14:30:37.537Z,56.20
2022-08-20T14:33:04.740Z,56.10
2022-08-20T14:35:31.982Z,56.40
2022-08-20T14:38:01.865Z,56.90
2022-08-20T14:40:35.164Z,56.90
2022-08-20T14:43:02.359Z,57.30
2022-08-20T14:45:29.487Z,57.40
2022-08-20T14:47:58.005Z,57.50
2022-08-20T14:50:31.949Z,57.40
2022-08-20T14:53:00.487Z,57.60
2022-08-20T14:55:31.782Z,57.80
2022-08-20T14:57:59.144Z,57.70
2022-08-20T15:00:30.632Z,57.60
2022-08-20T15:02:58.450Z,57.80
2022-08-20T15:05:26.063Z,58.00
2022-08-20T15:07:56.454Z,58.30
2022-08-20T15:10:30.620Z,58.70
2022-08-20T15:12:59.051Z,58.80
2022-08-20T15:15:27.161Z,58.90
2022-08-20T15:18:00.341Z,59.30
2022-08-20T15:20:31.175Z,59.70
2022-08-20T15:23:00.283Z,59.90
2022-08-20T15:25:37.071Z,60.10
2022-08-20T15:28:06.801Z,60.70
2022-08-20T15:30:34.342Z,60.70
2022-08-20T15:33:02.011Z,61.20
2022-08-20T15:35:29.586Z,61.50
2022-08-20T15:37:59.007Z,61.30
2022-08-20T15:40:29.963Z,61.70
2022-08-20T15:42:58.990Z,62.60
2022-08-20T15:45:27.183Z,63.20
2022-08-20T15:48:11.815Z,63.60
2022-08-20T15:51:16.606Z,63.20
2022-08-20T15:54:00.576Z,62.80
2022-08-20T15:56:54.044Z,63.30
2022-08-20T15:59:49.635Z,63.10
2022-08-20T16:02:35.509Z,64.20
2022-08-20T16:05:19.773Z,64.00
2022-08-20T16:07:53.884Z,64.70
2022-08-20T16:10:47.080Z,65.60
2022-08-20T16:13:35.040Z,66.60
2022-08-20T16:16:03.391Z,67.20
2022-08-20T16:18:37.514Z,66.60
2022-08-20T16:21:15.419Z,68.40
2022-08-20T16:23:44.422Z,69.00
2022-08-20T16:26:32.961Z,69.20
2022-08-20T16:29:17.334Z,69.70
2022-08-20T16:32:01.496Z,69.90
2022-08-20T16:34:34.732Z,71.30
2022-08-20T16:37:27.955Z,71.50
2022-08-20T16:40:18.411Z,72.00
2022-08-20T16:42:51.195Z,72.50
2022-08-20T16:45:26.005Z,72.40
2022-08-20T16:47:57.232Z,72.90
2022-08-20T16:50:44.683Z,73.10
2022-08-20T16:53:19.627Z,73.00
2022-08-20T16:55:47.331Z,73.70
2022-08-20T16:58:15.603Z,73.70
2022-08-20T17:00:46.776Z,74.30
2022-08-20T17:03:39.415Z,75.00
2022-08-20T17:06:20.217Z,75.00
2022-08-20T17:08:50.047Z,74.50
2022-08-20T17:11:25.202Z,76.30
2022-08-20T17:14:08.128Z,76.20
2022-08-20T17:16:41.216Z,77.00
2022-08-20T17:19:17.278Z,76.90
2022-08-20T17:21:45.269Z,78.70
2022-08-20T17:24:25.670Z,78.30
2022-08-20T17:27:03.439Z,78.90
2022-08-20T17:29:34.547Z,79.00
2022-08-20T17:32:27.720Z,79.70
2022-08-20T17:35:00.885Z,79.80
2022-08-20T17:37:34.542Z,80.40
2022-08-20T17:40:27.213Z,81.60
2022-08-20T17:42:59.384Z,81.80
2022-08-20T17:45:32.029Z,82.20
2022-08-20T17:48:01.070Z,83.00
2022-08-20T17:50:40.134Z,82.60
2022-08-20T17:53:24.749Z,83.10
2022-08-20T17:56:17.269Z,82.50
2022-08-20T17:58:55.459Z,83.60
2022-08-20T18:01:25.912Z,83.80
2022-08-20T18:03:53.617Z,83.90
2022-08-20T18:06:30.484Z,82.70
2022-08-20T18:09:04.399Z,83.80
2022-08-20T18:11:46.664Z,84.30
2022-08-20T18:14:26.032Z,85.30
2022-08-20T18:16:59.168Z,86.10
2022-08-20T18:19:35.131Z,85.50
2022-08-20T18:22:09.788Z,84.90
2022-08-20T18:24:45.211Z,84.70
2022-08-20T18:27:17.952Z,85.60
2022-08-20T18:29:54.764Z,84.20
2022-08-20T18:32:36.646Z,83.90
2022-08-20T18:35:12.341Z,83.60
2022-08-20T18:37:40.102Z,83.60
2022-08-20T18:40:15.827Z,83.10
2022-08-20T18:42:43.461Z,82.80
2022-08-20T18:45:10.923Z,82.70
2022-08-20T18:47:46.198Z,82.70
2022-08-20T18:50:30.477Z,82.60
2022-08-20T18:53:17.407Z,82.40
2022-08-20T18:55:47.463Z,82.40
2022-08-20T18:58:29.689Z,82.10
2022-08-20T19:01:03.868Z,82.00
2022-08-20T19:03:35.939Z,82.00
2022-08-20T19:06:06.397Z,82.00
2022-08-20T19:08:51.219Z,82.40
2022-08-20T19:12:00.198Z,82.10
2022-08-20T19:14:42.592Z,82.00
2022-08-20T19:17:15.488Z,82.30
2022-08-20T19:19:42.827Z,82.60
2022-08-20T19:22:20.287Z,82.60
2022-08-20T19:24:53.782Z,82.70
2022-08-20T19:27:27.790Z,82.90
2022-08-20T19:29:57.110Z,82.40
2022-08-20T19:32:27.931Z,82.30
2022-08-20T19:34:58.524Z,82.30
2022-08-20T19:37:50.578Z,82.10
2022-08-20T19:40:28.531Z,82.10
2022-08-20T19:43:02.654Z,83.00
2022-08-20T19:45:40.775Z,83.00
2022-08-20T19:48:18.059Z,83.40
2022-08-20T19:51:19.045Z,84.10
2022-08-20T19:53:48.520Z,84.00
2022-08-20T19:56:28.842Z,85.40
2022-08-20T19:59:05.277Z,85.40
2022-08-20T20:01:33.729Z,87.10
2022-08-20T20:04:05.446Z,87.80
2022-08-20T20:06:41.692Z,88.70
2022-08-20T20:09:22.284Z,88.80
2022-08-20T20:11:53.755Z,87.90
2022-08-20T20:14:29.354Z,88.90
2022-08-20T20:16:57.768Z,88.00
2022-08-20T20:19:28.642Z,89.00
2022-08-20T20:22:19.333Z,88.90
2022-08-20T20:25:04.849Z,89.10
2022-08-20T20:27:33.856Z,89.40
2022-08-20T20:30:15.082Z,90.10
2022-08-20T20:32:49.262Z,90.10
2022-08-20T20:35:34.686Z,90.40
2022-08-20T20:38:08.937Z,90.20
2022-08-20T20:40:53.385Z,90.60
2022-08-20T20:43:34.855Z,90.60
2022-08-20T20:46:07.120Z,90.70
2022-08-20T20:48:48.714Z,90.90
2022-08-20T20:51:28.614Z,90.80
2022-08-20T20:54:00.483Z,91.00
2022-08-20T20:56:37.748Z,91.00
2022-08-20T20:59:07.451Z,91.10
2022-08-20T21:01:57.922Z,91.20
2022-08-20T21:04:25.681Z,91.20
2022-08-20T21:06:57.210Z,91.30
2022-08-20T21:09:26.138Z,91.40
2022-08-20T21:11:53.354Z,91.10
2022-08-20T21:14:21.057Z,91.30
2022-08-20T21:16:48.230Z,91.30
2022-08-20T21:19:16.089Z,91.20
2022-08-20T21:21:44.104Z,91.30
2022-08-20T21:24:12.683Z,91.10
2022-08-20T21:26:41.159Z,91.30
2022-08-20T21:29:11.285Z,91.30
2022-08-20T21:31:43.759Z,91.00
2022-08-20T21:34:15.618Z,91.00
2022-08-20T21:36:43.283Z,91.00
2022-08-20T21:39:11.668Z,91.00
2022-08-20T21:41:42.589Z,91.00
2022-08-20T21:44:14.260Z,90.90
2022-08-20T21:46:43.867Z,90.70
2022-08-20T21:49:11.279Z,90.80
2022-08-20T21:51:38.525Z,90.60
2022-08-20T21:54:05.975Z,90.40
2022-08-20T21:56:34.039Z,90.40
2022-08-20T21:59:06.952Z,90.20
2022-08-20T22:01:35.720Z,90.10
2022-08-20T22:04:03.355Z,90.00
2022-08-20T22:06:31.341Z,90.00
2022-08-20T22:08:58.683Z,89.80
2022-08-20T22:11:26.953Z,89.60
2022-08-20T22:13:55.484Z,89.40
2022-08-20T22:16:28.535Z,89.00
2022-08-20T22:18:57.118Z,89.30
2022-08-20T22:21:29.842Z,89.10
2022-08-20T22:24:03.717Z,89.20
2022-08-20T22:26:33.752Z,89.10
2022-08-20T22:29:04.701Z,89.10
2022-08-20T22:31:40.633Z,89.00
2022-08-20T22:34:09.686Z,88.60
2022-08-20T22:36:45.912Z,89.00
2022-08-20T22:39:20.692Z,89.00
2022-08-20T22:41:48.770Z,88.70
2022-08-20T22:44:16.077Z,88.60
2022-08-20T22:46:48.783Z,88.40
2022-08-20T22:49:22.593Z,88.30
2022-08-20T22:51:52.881Z,88.40
2022-08-20T22:54:25.412Z,88.30
2022-08-20T22:56:53.984Z,88.40
2022-08-20T22:59:22.063Z,88.50
2022-08-20T23:01:55.527Z,88.60
2022-08-20T23:04:31.930Z,88.30
2022-08-20T23:07:01.549Z,88.90
2022-08-20T23:09:30.258Z,89.00
2022-08-20T23:11:57.787Z,89.20
2022-08-20T23:14:26.999Z,88.90
2022-08-20T23:17:12.665Z,88.90
2022-08-20T23:19:44.344Z,88.90
2022-08-20T23:22:12.224Z,88.40
2022-08-20T23:24:40.606Z,88.60
2022-08-20T23:27:10.248Z,88.10
2022-08-20T23:29:41.861Z,88.50
2022-08-20T23:32:13.674Z,88.50
2022-08-20T23:34:43.554Z,89.00
2022-08-20T23:37:11.664Z,90.00
2022-08-20T23:39:41.614Z,90.70
2022-08-20T23:42:11.314Z,91.40
2022-08-20T23:44:41.358Z,90.80
2022-08-20T23:47:10.595Z,91.30
2022-08-20T23:49:37.892Z,91.50
2022-08-20T23:52:08.425Z,91.30
2022-08-20T23:54:35.887Z,91.40
2022-08-20T23:57:08.310Z,91.50
2022-08-20T23:59:39.424Z,91.60
